sensor_id;sensor_type;location;lat;lon;timestamp;temperature;humidity
29687;DHT22;16599;47.078;15.536;2024-03-25T00:01:16;0.10;99.90
29687;DHT22;16599;47.078;15.536;2024-03-25T00:03:41;0.10;99.90
29687;DHT22;16599;47.078;15.536;2024-03-25T00:06:07;0.40;99.90
29687;DHT22;16599;47.078;15.536;2024-03-25T00:08:33;0.40;99.90
29687;DHT22;16599;47.078;15.536;2024-03-25T00:10:59;0.20;99.90
29687;DHT22;16599;47.078;15.536;2024-03-25T00:13:24;-0.10;99.90
29687;DHT22;16599;47.078;15.536;2024-03-25T00:15:50;-0.10;99.90
29687;DHT22;16599;47.078;15.536;2024-03-25T00:18:16;-0.10;99.90
29687;DHT22;16599;47.078;15.536;2024-03-25T00:20:42;0.00;99.90
29687;DHT22;16599;47.078;15.536;2024-03-25T00:23:08;0.30;99.90
29687;DHT22;16599;47.078;15.536;2024-03-25T00:25:33;0.30;99.90
29687;DHT22;16599;47.078;15.536;2024-03-25T00:27:59;-0.10;99.90
29687;DHT22;16599;47.078;15.536;2024-03-25T00:30:25;-0.20;99.90
29687;DHT22;16599;47.078;15.536;2024-03-25T00:32:51;0.00;99.90
29687;DHT22;16599;47.078;15.536;2024-03-25T00:35:16;0.10;99.90
29687;DHT22;16599;47.078;15.536;2024-03-25T00:37:43;-0.20;99.90
29687;DHT22;16599;47.078;15.536;2024-03-25T00:40:10;0.00;99.90
29687;DHT22;16599;47.078;15.536;2024-03-25T00:42:37;0.20;99.90
29687;DHT22;16599;47.078;15.536;2024-03-25T00:45:03;0.40;99.90
29687;DHT22;16599;47.078;15.536;2024-03-25T00:47:31;0.50;99.90
29687;DHT22;16599;47.078;15.536;2024-03-25T00:49:57;0.20;99.90
29687;DHT22;16599;47.078;15.536;2024-03-25T00:52:23;0.00;99.90
29687;DHT22;16599;47.078;15.536;2024-03-25T00:54:49;0.30;99.90
29687;DHT22;16599;47.078;15.536;2024-03-25T00:57:14;0.30;99.90
29687;DHT22;16599;47.078;15.536;2024-03-25T00:59:41;0.30;99.90
29687;DHT22;16599;47.078;15.536;2024-03-25T01:02:07;0.30;99.90
29687;DHT22;16599;47.078;15.536;2024-03-25T01:04:34;0.60;99.90
29687;DHT22;16599;47.078;15.536;2024-03-25T01:06:59;0.60;99.90
29687;DHT22;16599;47.078;15.536;2024-03-25T01:09:25;0.40;99.90
29687;DHT22;16599;47.078;15.536;2024-03-25T01:11:51;0.50;99.90
29687;DHT22;16599;47.078;15.536;2024-03-25T01:14:17;0.50;99.90
29687;DHT22;16599;47.078;15.536;2024-03-25T01:16:42;0.50;99.90
29687;DHT22;16599;47.078;15.536;2024-03-25T01:19:08;0.40;99.90
29687;DHT22;16599;47.078;15.536;2024-03-25T01:21:34;0.50;99.90
29687;DHT22;16599;47.078;15.536;2024-03-25T01:24:00;0.70;99.90
29687;DHT22;16599;47.078;15.536;2024-03-25T01:26:26;0.70;99.90
29687;DHT22;16599;47.078;15.536;2024-03-25T01:28:52;0.40;99.90
29687;DHT22;16599;47.078;15.536;2024-03-25T01:31:18;0.00;99.90
29687;DHT22;16599;47.078;15.536;2024-03-25T01:33:45;0.20;99.90
29687;DHT22;16599;47.078;15.536;2024-03-25T01:36:11;0.10;99.90
29687;DHT22;16599;47.078;15.536;2024-03-25T01:38:42;0.10;99.90
29687;DHT22;16599;47.078;15.536;2024-03-25T01:41:08;0.30;99.90
29687;DHT22;16599;47.078;15.536;2024-03-25T01:43:35;0.40;99.90
29687;DHT22;16599;47.078;15.536;2024-03-25T01:46:01;0.50;99.90
29687;DHT22;16599;47.078;15.536;2024-03-25T01:48:26;0.10;99.90
29687;DHT22;16599;47.078;15.536;2024-03-25T01:50:52;-0.20;99.90
29687;DHT22;16599;47.078;15.536;2024-03-25T01:53:18;-0.10;99.90
29687;DHT22;16599;47.078;15.536;2024-03-25T01:55:44;0.10;99.90
29687;DHT22;16599;47.078;15.536;2024-03-25T01:58:11;0.30;99.90
29687;DHT22;16599;47.078;15.536;2024-03-25T02:00:37;0.30;99.90
29687;DHT22;16599;47.078;15.536;2024-03-25T02:03:03;0.00;99.90
29687;DHT22;16599;47.078;15.536;2024-03-25T02:05:30;-0.30;99.90
29687;DHT22;16599;47.078;15.536;2024-03-25T02:07:56;0.00;99.90
29687;DHT22;16599;47.078;15.536;2024-03-25T02:10:22;0.20;99.90
29687;DHT22;16599;47.078;15.536;2024-03-25T02:12:48;0.30;99.90
29687;DHT22;16599;47.078;15.536;2024-03-25T02:15:14;0.10;99.90
29687;DHT22;16599;47.078;15.536;2024-03-25T02:17:40;0.20;99.90
29687;DHT22;16599;47.078;15.536;2024-03-25T02:20:06;0.20;99.90
29687;DHT22;16599;47.078;15.536;2024-03-25T02:22:35;-0.20;99.90
29687;DHT22;16599;47.078;15.536;2024-03-25T02:25:05;-0.20;99.90
29687;DHT22;16599;47.078;15.536;2024-03-25T02:27:31;-0.20;99.90
29687;DHT22;16599;47.078;15.536;2024-03-25T02:30:01;-0.20;99.90
29687;DHT22;16599;47.078;15.536;2024-03-25T02:32:27;-0.30;99.90
29687;DHT22;16599;47.078;15.536;2024-03-25T02:34:55;-0.50;99.90
29687;DHT22;16599;47.078;15.536;2024-03-25T02:37:22;-0.40;99.90
29687;DHT22;16599;47.078;15.536;2024-03-25T02:39:48;-0.50;99.90
29687;DHT22;16599;47.078;15.536;2024-03-25T02:42:14;-0.30;99.90
29687;DHT22;16599;47.078;15.536;2024-03-25T02:44:40;-0.50;99.90
29687;DHT22;16599;47.078;15.536;2024-03-25T02:47:08;-0.40;99.90
29687;DHT22;16599;47.078;15.536;2024-03-25T02:49:35;-0.20;99.90
29687;DHT22;16599;47.078;15.536;2024-03-25T02:52:01;-0.20;99.90
29687;DHT22;16599;47.078;15.536;2024-03-25T02:54:47;-0.20;99.90
29687;DHT22;16599;47.078;15.536;2024-03-25T02:57:20;-0.40;99.90
29687;DHT22;16599;47.078;15.536;2024-03-25T03:00:06;-0.50;99.90
29687;DHT22;16599;47.078;15.536;2024-03-25T03:02:34;-0.30;99.90
29687;DHT22;16599;47.078;15.536;2024-03-25T03:05:00;-0.30;99.90
29687;DHT22;16599;47.078;15.536;2024-03-25T03:07:26;-0.10;99.90
29687;DHT22;16599;47.078;15.536;2024-03-25T03:09:52;-0.30;99.90
29687;DHT22;16599;47.078;15.536;2024-03-25T03:12:18;-0.50;99.90
29687;DHT22;16599;47.078;15.536;2024-03-25T03:14:43;-0.40;99.90
29687;DHT22;16599;47.078;15.536;2024-03-25T03:17:09;-0.20;99.90
29687;DHT22;16599;47.078;15.536;2024-03-25T03:19:35;0.00;99.90
29687;DHT22;16599;47.078;15.536;2024-03-25T03:22:01;-0.10;99.90
29687;DHT22;16599;47.078;15.536;2024-03-25T03:24:27;-0.30;99.90
29687;DHT22;16599;47.078;15.536;2024-03-25T03:26:53;0.00;99.90
29687;DHT22;16599;47.078;15.536;2024-03-25T03:29:19;0.00;99.90
29687;DHT22;16599;47.078;15.536;2024-03-25T03:31:45;-0.10;99.90
29687;DHT22;16599;47.078;15.536;2024-03-25T03:34:11;-0.30;99.90
29687;DHT22;16599;47.078;15.536;2024-03-25T03:36:36;-0.10;99.90
29687;DHT22;16599;47.078;15.536;2024-03-25T03:39:04;-0.10;99.90
29687;DHT22;16599;47.078;15.536;2024-03-25T03:41:30;-0.20;99.90
29687;DHT22;16599;47.078;15.536;2024-03-25T03:43:55;-0.30;99.90
29687;DHT22;16599;47.078;15.536;2024-03-25T03:46:21;-0.10;99.90
29687;DHT22;16599;47.078;15.536;2024-03-25T03:48:47;0.00;99.90
29687;DHT22;16599;47.078;15.536;2024-03-25T03:51:13;0.10;99.90
29687;DHT22;16599;47.078;15.536;2024-03-25T03:53:39;0.00;99.90
29687;DHT22;16599;47.078;15.536;2024-03-25T03:56:05;0.10;99.90
29687;DHT22;16599;47.078;15.536;2024-03-25T03:58:31;-0.40;99.90
29687;DHT22;16599;47.078;15.536;2024-03-25T04:00:57;-0.40;99.90
29687;DHT22;16599;47.078;15.536;2024-03-25T04:03:23;-0.30;99.90
29687;DHT22;16599;47.078;15.536;2024-03-25T04:05:49;-0.20;99.90
29687;DHT22;16599;47.078;15.536;2024-03-25T04:08:15;-0.20;99.90
29687;DHT22;16599;47.078;15.536;2024-03-25T04:10:44;-0.50;99.90
29687;DHT22;16599;47.078;15.536;2024-03-25T04:13:10;-0.70;99.90
29687;DHT22;16599;47.078;15.536;2024-03-25T04:15:40;-0.70;99.90
29687;DHT22;16599;47.078;15.536;2024-03-25T04:18:06;-0.60;99.90
29687;DHT22;16599;47.078;15.536;2024-03-25T04:20:36;-0.60;99.90
29687;DHT22;16599;47.078;15.536;2024-03-25T04:23:02;-0.40;99.90
29687;DHT22;16599;47.078;15.536;2024-03-25T04:25:28;-0.20;99.90
29687;DHT22;16599;47.078;15.536;2024-03-25T04:27:53;-0.20;99.90
29687;DHT22;16599;47.078;15.536;2024-03-25T04:30:19;-0.20;99.90
29687;DHT22;16599;47.078;15.536;2024-03-25T04:32:45;-0.20;99.90
29687;DHT22;16599;47.078;15.536;2024-03-25T04:35:11;-0.60;99.90
29687;DHT22;16599;47.078;15.536;2024-03-25T04:37:37;-0.60;99.90
29687;DHT22;16599;47.078;15.536;2024-03-25T04:40:02;-0.70;99.90
29687;DHT22;16599;47.078;15.536;2024-03-25T04:42:28;-0.60;99.90
29687;DHT22;16599;47.078;15.536;2024-03-25T04:44:54;-0.50;99.90
29687;DHT22;16599;47.078;15.536;2024-03-25T04:47:20;-0.30;99.90
29687;DHT22;16599;47.078;15.536;2024-03-25T04:49:46;-0.40;99.90
29687;DHT22;16599;47.078;15.536;2024-03-25T04:52:14;-0.60;99.90
29687;DHT22;16599;47.078;15.536;2024-03-25T04:54:44;-0.50;99.90
29687;DHT22;16599;47.078;15.536;2024-03-25T04:57:09;-0.30;99.90
29687;DHT22;16599;47.078;15.536;2024-03-25T04:59:35;-0.20;99.90
29687;DHT22;16599;47.078;15.536;2024-03-25T05:02:01;-0.20;99.90
29687;DHT22;16599;47.078;15.536;2024-03-25T05:04:28;-0.10;99.90
29687;DHT22;16599;47.078;15.536;2024-03-25T05:06:53;0.10;99.90
29687;DHT22;16599;47.078;15.536;2024-03-25T05:09:19;0.10;99.90
29687;DHT22;16599;47.078;15.536;2024-03-25T05:11:45;0.00;99.90
29687;DHT22;16599;47.078;15.536;2024-03-25T05:14:11;0.20;99.90
29687;DHT22;16599;47.078;15.536;2024-03-25T05:16:37;0.40;99.90
29687;DHT22;16599;47.078;15.536;2024-03-25T05:19:03;0.30;99.90
29687;DHT22;16599;47.078;15.536;2024-03-25T05:21:32;0.10;99.90
29687;DHT22;16599;47.078;15.536;2024-03-25T05:23:58;0.10;99.90
29687;DHT22;16599;47.078;15.536;2024-03-25T05:26:24;0.20;99.90
29687;DHT22;16599;47.078;15.536;2024-03-25T05:28:53;0.30;99.90
29687;DHT22;16599;47.078;15.536;2024-03-25T05:31:18;0.50;99.90
29687;DHT22;16599;47.078;15.536;2024-03-25T05:33:44;0.50;99.90
29687;DHT22;16599;47.078;15.536;2024-03-25T05:36:10;0.50;99.90
29687;DHT22;16599;47.078;15.536;2024-03-25T05:38:36;0.70;99.90
29687;DHT22;16599;47.078;15.536;2024-03-25T05:41:02;0.70;99.90
29687;DHT22;16599;47.078;15.536;2024-03-25T05:43:27;0.60;99.90
29687;DHT22;16599;47.078;15.536;2024-03-25T05:45:53;0.60;99.90
29687;DHT22;16599;47.078;15.536;2024-03-25T05:48:19;0.70;99.90
29687;DHT22;16599;47.078;15.536;2024-03-25T05:50:45;0.80;99.90
29687;DHT22;16599;47.078;15.536;2024-03-25T05:53:12;0.80;99.90
29687;DHT22;16599;47.078;15.536;2024-03-25T05:55:38;0.80;99.90
29687;DHT22;16599;47.078;15.536;2024-03-25T05:58:04;0.90;99.90
29687;DHT22;16599;47.078;15.536;2024-03-25T06:00:30;1.00;99.90
29687;DHT22;16599;47.078;15.536;2024-03-25T06:02:58;1.20;99.90
29687;DHT22;16599;47.078;15.536;2024-03-25T06:05:24;1.30;99.90
29687;DHT22;16599;47.078;15.536;2024-03-25T06:07:50;1.40;99.90
29687;DHT22;16599;47.078;15.536;2024-03-25T06:10:16;1.40;99.90
29687;DHT22;16599;47.078;15.536;2024-03-25T06:12:42;1.50;99.90
29687;DHT22;16599;47.078;15.536;2024-03-25T06:15:07;1.50;99.90
29687;DHT22;16599;47.078;15.536;2024-03-25T06:17:33;1.40;99.90
29687;DHT22;16599;47.078;15.536;2024-03-25T06:19:59;1.30;99.90
29687;DHT22;16599;47.078;15.536;2024-03-25T06:22:25;1.40;99.90
29687;DHT22;16599;47.078;15.536;2024-03-25T06:24:51;1.40;99.90
29687;DHT22;16599;47.078;15.536;2024-03-25T06:27:17;1.50;99.90
29687;DHT22;16599;47.078;15.536;2024-03-25T06:29:43;1.70;99.90
29687;DHT22;16599;47.078;15.536;2024-03-25T06:32:11;1.70;99.90
29687;DHT22;16599;47.078;15.536;2024-03-25T06:34:56;1.80;99.90
29687;DHT22;16599;47.078;15.536;2024-03-25T06:37:25;1.80;99.90
29687;DHT22;16599;47.078;15.536;2024-03-25T06:39:51;1.80;99.90
29687;DHT22;16599;47.078;15.536;2024-03-25T06:42:18;1.90;99.90
29687;DHT22;16599;47.078;15.536;2024-03-25T06:44:44;1.90;99.90
29687;DHT22;16599;47.078;15.536;2024-03-25T06:47:15;1.90;99.90
29687;DHT22;16599;47.078;15.536;2024-03-25T06:49:40;1.90;99.90
29687;DHT22;16599;47.078;15.536;2024-03-25T06:52:06;2.00;99.90
29687;DHT22;16599;47.078;15.536;2024-03-25T06:54:32;2.20;99.90
29687;DHT22;16599;47.078;15.536;2024-03-25T06:56:58;2.30;99.90
29687;DHT22;16599;47.078;15.536;2024-03-25T06:59:23;2.60;99.90
29687;DHT22;16599;47.078;15.536;2024-03-25T07:01:49;2.70;99.90
29687;DHT22;16599;47.078;15.536;2024-03-25T07:04:15;2.80;99.90
29687;DHT22;16599;47.078;15.536;2024-03-25T07:06:41;3.00;99.90
29687;DHT22;16599;47.078;15.536;2024-03-25T07:09:08;3.20;99.90
29687;DHT22;16599;47.078;15.536;2024-03-25T07:11:36;3.40;99.90
29687;DHT22;16599;47.078;15.536;2024-03-25T07:14:03;3.60;99.90
29687;DHT22;16599;47.078;15.536;2024-03-25T07:16:29;3.80;99.90
29687;DHT22;16599;47.078;15.536;2024-03-25T07:18:55;4.00;99.90
29687;DHT22;16599;47.078;15.536;2024-03-25T07:21:21;4.20;99.90
29687;DHT22;16599;47.078;15.536;2024-03-25T07:23:49;4.40;99.90
29687;DHT22;16599;47.078;15.536;2024-03-25T07:26:15;4.70;99.90
29687;DHT22;16599;47.078;15.536;2024-03-25T07:28:41;5.10;99.90
29687;DHT22;16599;47.078;15.536;2024-03-25T07:31:07;5.50;99.90
29687;DHT22;16599;47.078;15.536;2024-03-25T07:33:45;5.70;96.70
29687;DHT22;16599;47.078;15.536;2024-03-25T07:36:14;5.80;96.40
29687;DHT22;16599;47.078;15.536;2024-03-25T07:38:40;5.80;94.30
29687;DHT22;16599;47.078;15.536;2024-03-25T07:41:08;5.90;94.00
29687;DHT22;16599;47.078;15.536;2024-03-25T07:43:38;6.10;94.10
29687;DHT22;16599;47.078;15.536;2024-03-25T07:46:04;6.20;93.60
29687;DHT22;16599;47.078;15.536;2024-03-25T07:48:30;6.20;91.70
29687;DHT22;16599;47.078;15.536;2024-03-25T07:50:56;6.00;91.40
29687;DHT22;16599;47.078;15.536;2024-03-25T07:53:22;6.40;92.20
29687;DHT22;16599;47.078;15.536;2024-03-25T07:55:47;6.50;92.20
29687;DHT22;16599;47.078;15.536;2024-03-25T07:58:13;6.70;93.10
29687;DHT22;16599;47.078;15.536;2024-03-25T08:00:39;6.60;91.90
29687;DHT22;16599;47.078;15.536;2024-03-25T08:03:05;6.60;92.90
29687;DHT22;16599;47.078;15.536;2024-03-25T08:05:31;6.60;92.70
29687;DHT22;16599;47.078;15.536;2024-03-25T08:07:57;6.80;93.10
29687;DHT22;16599;47.078;15.536;2024-03-25T08:10:26;6.90;93.10
29687;DHT22;16599;47.078;15.536;2024-03-25T08:12:52;7.10;93.30
29687;DHT22;16599;47.078;15.536;2024-03-25T08:15:18;7.20;92.50
29687;DHT22;16599;47.078;15.536;2024-03-25T08:17:44;7.60;94.10
29687;DHT22;16599;47.078;15.536;2024-03-25T08:20:10;7.80;93.00
29687;DHT22;16599;47.078;15.536;2024-03-25T08:22:36;8.00;92.40
29687;DHT22;16599;47.078;15.536;2024-03-25T08:25:02;8.10;92.80
29687;DHT22;16599;47.078;15.536;2024-03-25T08:27:29;7.90;90.40
29687;DHT22;16599;47.078;15.536;2024-03-25T08:29:54;7.80;90.50
29687;DHT22;16599;47.078;15.536;2024-03-25T08:32:20;7.80;90.50
29687;DHT22;16599;47.078;15.536;2024-03-25T08:34:46;8.00;90.10
29687;DHT22;16599;47.078;15.536;2024-03-25T08:37:12;8.10;88.60
29687;DHT22;16599;47.078;15.536;2024-03-25T08:39:37;8.30;86.90
29687;DHT22;16599;47.078;15.536;2024-03-25T08:42:03;8.20;80.80
29687;DHT22;16599;47.078;15.536;2024-03-25T08:44:29;8.50;80.80
29687;DHT22;16599;47.078;15.536;2024-03-25T08:46:55;8.60;78.00
29687;DHT22;16599;47.078;15.536;2024-03-25T08:49:21;9.00;74.20
29687;DHT22;16599;47.078;15.536;2024-03-25T08:51:50;9.20;70.70
29687;DHT22;16599;47.078;15.536;2024-03-25T08:54:16;9.20;68.60
29687;DHT22;16599;47.078;15.536;2024-03-25T08:56:41;9.00;67.20
29687;DHT22;16599;47.078;15.536;2024-03-25T08:59:07;9.00;68.00
29687;DHT22;16599;47.078;15.536;2024-03-25T09:01:35;9.00;67.30
29687;DHT22;16599;47.078;15.536;2024-03-25T09:04:00;8.80;69.90
29687;DHT22;16599;47.078;15.536;2024-03-25T09:06:27;9.00;69.80
29687;DHT22;16599;47.078;15.536;2024-03-25T09:08:53;9.20;69.80
29687;DHT22;16599;47.078;15.536;2024-03-25T09:11:37;9.40;69.20
29687;DHT22;16599;47.078;15.536;2024-03-25T09:14:03;9.50;65.80
29687;DHT22;16599;47.078;15.536;2024-03-25T09:16:29;8.80;65.40
29687;DHT22;16599;47.078;15.536;2024-03-25T09:18:55;9.10;66.90
29687;DHT22;16599;47.078;15.536;2024-03-25T09:21:21;9.70;65.00
29687;DHT22;16599;47.078;15.536;2024-03-25T09:23:50;9.60;64.20
29687;DHT22;16599;47.078;15.536;2024-03-25T09:26:15;9.40;64.00
29687;DHT22;16599;47.078;15.536;2024-03-25T09:28:41;9.80;66.30
29687;DHT22;16599;47.078;15.536;2024-03-25T09:31:07;10.10;62.80
29687;DHT22;16599;47.078;15.536;2024-03-25T09:33:33;10.10;62.20
29687;DHT22;16599;47.078;15.536;2024-03-25T09:35:58;9.60;63.30
29687;DHT22;16599;47.078;15.536;2024-03-25T09:38:24;9.40;61.50
29687;DHT22;16599;47.078;15.536;2024-03-25T09:40:50;9.60;66.10
29687;DHT22;16599;47.078;15.536;2024-03-25T09:43:23;9.90;61.80
29687;DHT22;16599;47.078;15.536;2024-03-25T09:45:50;10.20;62.10
29687;DHT22;16599;47.078;15.536;2024-03-25T09:48:18;10.80;64.40
29687;DHT22;16599;47.078;15.536;2024-03-25T09:50:44;10.80;61.60
29687;DHT22;16599;47.078;15.536;2024-03-25T09:53:10;10.60;61.30
29687;DHT22;16599;47.078;15.536;2024-03-25T09:55:36;10.60;60.70
29687;DHT22;16599;47.078;15.536;2024-03-25T09:58:02;9.80;59.60
29687;DHT22;16599;47.078;15.536;2024-03-25T10:00:29;9.80;64.70
29687;DHT22;16599;47.078;15.536;2024-03-25T10:02:55;10.20;64.30
29687;DHT22;16599;47.078;15.536;2024-03-25T10:05:21;10.90;66.80
29687;DHT22;16599;47.078;15.536;2024-03-25T10:07:47;11.10;61.90
29687;DHT22;16599;47.078;15.536;2024-03-25T10:10:13;11.30;59.60
29687;DHT22;16599;47.078;15.536;2024-03-25T10:12:39;11.10;59.30
29687;DHT22;16599;47.078;15.536;2024-03-25T10:15:06;10.50;56.90
29687;DHT22;16599;47.078;15.536;2024-03-25T10:17:32;10.50;64.30
29687;DHT22;16599;47.078;15.536;2024-03-25T10:19:58;10.30;62.20
29687;DHT22;16599;47.078;15.536;2024-03-25T10:22:24;10.70;62.50
29687;DHT22;16599;47.078;15.536;2024-03-25T10:24:50;11.30;61.00
29687;DHT22;16599;47.078;15.536;2024-03-25T10:27:22;11.00;58.40
29687;DHT22;16599;47.078;15.536;2024-03-25T10:29:52;11.10;62.90
29687;DHT22;16599;47.078;15.536;2024-03-25T10:32:18;11.50;60.00
29687;DHT22;16599;47.078;15.536;2024-03-25T10:34:44;12.20;62.00
29687;DHT22;16599;47.078;15.536;2024-03-25T10:37:10;12.30;56.20
29687;DHT22;16599;47.078;15.536;2024-03-25T10:39:43;11.60;57.00
29687;DHT22;16599;47.078;15.536;2024-03-25T10:42:09;11.50;57.10
29687;DHT22;16599;47.078;15.536;2024-03-25T10:44:38;11.60;57.80
29687;DHT22;16599;47.078;15.536;2024-03-25T10:47:05;11.70;58.00
29687;DHT22;16599;47.078;15.536;2024-03-25T10:49:33;11.60;57.00
29687;DHT22;16599;47.078;15.536;2024-03-25T10:52:03;11.50;58.10
29687;DHT22;16599;47.078;15.536;2024-03-25T10:54:31;10.90;55.40
29687;DHT22;16599;47.078;15.536;2024-03-25T10:57:00;10.80;59.00
29687;DHT22;16599;47.078;15.536;2024-03-25T10:59:29;11.00;58.70
29687;DHT22;16599;47.078;15.536;2024-03-25T11:01:55;11.00;58.50
29687;DHT22;16599;47.078;15.536;2024-03-25T11:04:22;10.90;56.80
29687;DHT22;16599;47.078;15.536;2024-03-25T11:06:48;10.90;58.80
29687;DHT22;16599;47.078;15.536;2024-03-25T11:09:24;11.10;56.10
29687;DHT22;16599;47.078;15.536;2024-03-25T11:11:54;11.50;57.60
29687;DHT22;16599;47.078;15.536;2024-03-25T11:14:20;11.60;55.80
29687;DHT22;16599;47.078;15.536;2024-03-25T11:16:53;11.70;55.90
29687;DHT22;16599;47.078;15.536;2024-03-25T11:19:20;11.70;57.70
29687;DHT22;16599;47.078;15.536;2024-03-25T11:21:46;11.40;54.40
29687;DHT22;16599;47.078;15.536;2024-03-25T11:24:12;11.40;56.90
29687;DHT22;16599;47.078;15.536;2024-03-25T11:26:41;11.80;54.00
29687;DHT22;16599;47.078;15.536;2024-03-25T11:29:08;11.40;52.80
29687;DHT22;16599;47.078;15.536;2024-03-25T11:31:34;11.00;55.70
29687;DHT22;16599;47.078;15.536;2024-03-25T11:34:04;10.70;54.20
29687;DHT22;16599;47.078;15.536;2024-03-25T11:36:30;11.00;53.10
29687;DHT22;16599;47.078;15.536;2024-03-25T11:41:26;11.20;53.50
29687;DHT22;16599;47.078;15.536;2024-03-25T11:43:52;11.50;52.10
29687;DHT22;16599;47.078;15.536;2024-03-25T11:46:18;11.70;51.80
29687;DHT22;16599;47.078;15.536;2024-03-25T11:48:44;12.20;51.20
29687;DHT22;16599;47.078;15.536;2024-03-25T11:51:16;12.30;51.00
29687;DHT22;16599;47.078;15.536;2024-03-25T11:53:42;12.30;51.20
29687;DHT22;16599;47.078;15.536;2024-03-25T11:56:07;11.90;51.00
29687;DHT22;16599;47.078;15.536;2024-03-25T11:58:33;11.70;51.40
29687;DHT22;16599;47.078;15.536;2024-03-25T12:00:59;12.00;51.20
29687;DHT22;16599;47.078;15.536;2024-03-25T12:03:25;11.80;52.90
29687;DHT22;16599;47.078;15.536;2024-03-25T12:05:52;12.00;53.80
29687;DHT22;16599;47.078;15.536;2024-03-25T12:08:17;12.50;51.40
29687;DHT22;16599;47.078;15.536;2024-03-25T12:10:43;12.90;53.70
29687;DHT22;16599;47.078;15.536;2024-03-25T12:13:28;13.50;52.20
29687;DHT22;16599;47.078;15.536;2024-03-25T12:15:53;13.60;50.10
29687;DHT22;16599;47.078;15.536;2024-03-25T12:18:20;13.60;49.60
29687;DHT22;16599;47.078;15.536;2024-03-25T12:20:46;13.20;53.10
29687;DHT22;16599;47.078;15.536;2024-03-25T12:23:11;13.30;53.60
29687;DHT22;16599;47.078;15.536;2024-03-25T12:25:37;12.80;51.90
29687;DHT22;16599;47.078;15.536;2024-03-25T12:28:08;12.50;53.30
29687;DHT22;16599;47.078;15.536;2024-03-25T12:30:51;12.70;54.00
29687;DHT22;16599;47.078;15.536;2024-03-25T12:33:17;12.50;54.20
29687;DHT22;16599;47.078;15.536;2024-03-25T12:35:46;12.50;54.00
29687;DHT22;16599;47.078;15.536;2024-03-25T12:38:25;13.20;52.40
29687;DHT22;16599;47.078;15.536;2024-03-25T12:40:51;13.00;52.10
29687;DHT22;16599;47.078;15.536;2024-03-25T12:43:17;12.20;52.90
29687;DHT22;16599;47.078;15.536;2024-03-25T12:45:42;11.80;53.80
29687;DHT22;16599;47.078;15.536;2024-03-25T12:48:09;11.50;55.10
29687;DHT22;16599;47.078;15.536;2024-03-25T12:50:35;11.20;54.70
29687;DHT22;16599;47.078;15.536;2024-03-25T12:53:01;11.30;57.00
29687;DHT22;16599;47.078;15.536;2024-03-25T12:55:27;11.30;54.40
29687;DHT22;16599;47.078;15.536;2024-03-25T12:57:52;11.50;56.30
29687;DHT22;16599;47.078;15.536;2024-03-25T13:00:18;11.70;55.00
29687;DHT22;16599;47.078;15.536;2024-03-25T13:02:44;11.80;55.70
29687;DHT22;16599;47.078;15.536;2024-03-25T13:05:12;11.80;54.00
29687;DHT22;16599;47.078;15.536;2024-03-25T13:07:41;11.90;55.70
29687;DHT22;16599;47.078;15.536;2024-03-25T13:10:07;12.00;55.80
29687;DHT22;16599;47.078;15.536;2024-03-25T13:12:33;12.00;54.40
29687;DHT22;16599;47.078;15.536;2024-03-25T13:14:59;12.10;52.60
29687;DHT22;16599;47.078;15.536;2024-03-25T13:17:25;12.30;54.90
29687;DHT22;16599;47.078;15.536;2024-03-25T13:19:50;12.20;52.10
29687;DHT22;16599;47.078;15.536;2024-03-25T13:22:16;12.20;53.90
29687;DHT22;16599;47.078;15.536;2024-03-25T13:24:42;12.30;55.90
29687;DHT22;16599;47.078;15.536;2024-03-25T13:27:08;12.70;55.00
29687;DHT22;16599;47.078;15.536;2024-03-25T13:29:34;12.80;53.00
29687;DHT22;16599;47.078;15.536;2024-03-25T13:32:05;13.10;53.70
29687;DHT22;16599;47.078;15.536;2024-03-25T13:34:35;13.40;54.00
29687;DHT22;16599;47.078;15.536;2024-03-25T13:37:01;13.80;50.00
29687;DHT22;16599;47.078;15.536;2024-03-25T13:39:26;13.90;50.30
29687;DHT22;16599;47.078;15.536;2024-03-25T13:41:52;14.00;52.70
29687;DHT22;16599;47.078;15.536;2024-03-25T13:44:18;13.40;48.00
29687;DHT22;16599;47.078;15.536;2024-03-25T13:46:44;12.50;48.90
29687;DHT22;16599;47.078;15.536;2024-03-25T13:49:10;12.90;51.40
29687;DHT22;16599;47.078;15.536;2024-03-25T13:51:36;13.40;48.30
29687;DHT22;16599;47.078;15.536;2024-03-25T13:54:02;13.30;48.70
29687;DHT22;16599;47.078;15.536;2024-03-25T13:56:28;13.70;50.00
29687;DHT22;16599;47.078;15.536;2024-03-25T13:58:54;13.90;49.50
29687;DHT22;16599;47.078;15.536;2024-03-25T14:01:19;13.90;50.50
29687;DHT22;16599;47.078;15.536;2024-03-25T14:03:45;14.30;49.80
29687;DHT22;16599;47.078;15.536;2024-03-25T14:06:11;14.70;48.50
29687;DHT22;16599;47.078;15.536;2024-03-25T14:08:37;14.80;49.30
29687;DHT22;16599;47.078;15.536;2024-03-25T14:11:03;15.00;48.20
29687;DHT22;16599;47.078;15.536;2024-03-25T14:13:29;14.90;45.90
29687;DHT22;16599;47.078;15.536;2024-03-25T14:15:55;14.90;45.10
29687;DHT22;16599;47.078;15.536;2024-03-25T14:18:21;14.30;43.50
29687;DHT22;16599;47.078;15.536;2024-03-25T14:20:46;13.20;48.70
29687;DHT22;16599;47.078;15.536;2024-03-25T14:23:12;13.90;47.90
29687;DHT22;16599;47.078;15.536;2024-03-25T14:25:38;13.50;46.50
29687;DHT22;16599;47.078;15.536;2024-03-25T14:28:05;13.60;49.40
29687;DHT22;16599;47.078;15.536;2024-03-25T14:30:31;13.90;48.90
29687;DHT22;16599;47.078;15.536;2024-03-25T14:32:57;14.00;48.50
29687;DHT22;16599;47.078;15.536;2024-03-25T14:35:22;14.20;46.10
29687;DHT22;16599;47.078;15.536;2024-03-25T14:37:48;13.50;45.90
29687;DHT22;16599;47.078;15.536;2024-03-25T14:40:15;13.40;49.00
29687;DHT22;16599;47.078;15.536;2024-03-25T14:42:43;13.60;47.50
29687;DHT22;16599;47.078;15.536;2024-03-25T14:45:08;13.90;46.30
29687;DHT22;16599;47.078;15.536;2024-03-25T14:47:34;13.20;46.10
29687;DHT22;16599;47.078;15.536;2024-03-25T14:50:00;13.00;46.70
29687;DHT22;16599;47.078;15.536;2024-03-25T14:52:26;12.70;48.00
29687;DHT22;16599;47.078;15.536;2024-03-25T14:54:52;12.90;51.00
29687;DHT22;16599;47.078;15.536;2024-03-25T14:57:17;13.40;49.30
29687;DHT22;16599;47.078;15.536;2024-03-25T14:59:43;13.50;49.50
29687;DHT22;16599;47.078;15.536;2024-03-25T15:02:09;13.80;47.70
29687;DHT22;16599;47.078;15.536;2024-03-25T15:04:41;13.30;47.10
29687;DHT22;16599;47.078;15.536;2024-03-25T15:07:10;13.30;46.00
29687;DHT22;16599;47.078;15.536;2024-03-25T15:09:35;12.90;48.60
29687;DHT22;16599;47.078;15.536;2024-03-25T15:12:01;12.70;48.20
29687;DHT22;16599;47.078;15.536;2024-03-25T15:14:30;12.90;49.50
29687;DHT22;16599;47.078;15.536;2024-03-25T15:16:59;13.10;48.70
29687;DHT22;16599;47.078;15.536;2024-03-25T15:19:25;12.50;48.90
29687;DHT22;16599;47.078;15.536;2024-03-25T15:21:52;12.60;50.00